Airfield :
LOGIN :

Register | Disclaimer

   EN    FR    IT 

 










Legend :    VFR   Marginal VFR   IFR   Intensive IFR   Very Intensive IFR
Visi :
Ceiling :
>= 8 km
>= 3000ft
5 to 8 km
1000 to 3000 ft
1500m to 5 km
500 to 1000 ft
800 to 1500m
200 to 500 ft
< 800m
< 200 ft
Symbols :   Thunderstorms  Fog  Heavy snow  Heavy precipitations  Wind > 20 kt
SIGMETs :     Misc.  Thunderstorms  Icing  Turbulence  Mountain Waves  Volcanic Ashes







- Airport Elevation : 86 ft


LERT - Rota Navy

CURRENT METAR :
  • 130500Z 36005KT 330V040 CAVOK 13/12 Q1019 NOSIG

EXPIRED METARs :
  • 130400Z 02004KT 350V050 CAVOK 13/12 Q1019 NOSIG
  • 130300Z 36004KT CAVOK 13/13 Q1019 NOSIG

TAF TAF LERT
Valid from the 13 at 03:00 until the 13 at 12:00 UTC


130200Z 1303/1312 03006KT 9999 SCT040
PROB40
TEMPO 1304/1308 4000 BR
No reported NOTAMs for that airfield.
1 SIGMET reported for the Madrid FIR (LECM) :
 
Severe turbulence
LECM SIGMET 1 VALID 130300/130600 LEVA
LECM MADRID UIR SEV TURB FCST WI N41 W00652 - N4417 W00408 - N4351 W00241 - N3709 W00721 - N4058 W00653 - N41 W00652 FL270/330 STNR WKN=



MET'MAP, your aeronautical weather chart ! - Copyright ORBIFLY December 2007 - Disclaimer

ORBIFLY MET'MAP TEAM :

Programming & Development : Alexandra Zaïnal
Concept & Development : Baudouin d'Aumeries
Co-Development & Prog : Marc-Olivier Méhu
Technical & hardware support : Manuel Goepfert

Contact : metmap@orbifly.com




SOURCES & CREDITS :

   NOAA